Time;durP1;ratioP1;P1;durP2;ratioP2;P2;SDS_P1;SDS_P2;PMS_P1;PMS_P2;Temp;Humidity;BMP_temperature;BMP_pressure;BME280_temperature;BME280_humidity;BME280_pressure;Samples;Min_cycle;Max_cycle;Signal;HPM_P1;HPM_P2
2021/10/07 00:01:07;;;;;;;3.78;2.58;;;10.80;94.50;;;;;;2112250;28;20036;-90
2021/10/07 00:02:26;;;;;;;4.28;3.08;;;10.80;94.50;;;;;;2115271;28;20393;-91
2021/10/07 00:03:45;;;;;;;3.83;2.70;;;10.80;94.50;;;;;;2106388;28;20040;-90
2021/10/07 00:05:06;;;;;;;4.20;2.53;;;10.80;94.50;;;;;;2111684;28;20043;-90
2021/10/07 00:06:26;;;;;;;3.25;2.33;;;10.80;94.40;;;;;;2114652;28;20170;-90
2021/10/07 00:07:44;;;;;;;4.65;2.72;;;10.80;94.40;;;;;;2115147;28;20036;-90
2021/10/07 00:09:06;;;;;;;4.32;2.90;;;10.80;94.40;;;;;;2098932;28;20056;-89
2021/10/07 00:10:27;;;;;;;3.88;2.60;;;10.80;94.40;;;;;;2111634;28;20071;-90
2021/10/07 00:11:46;;;;;;;5.32;2.80;;;10.80;94.40;;;;;;2116546;28;20036;-90
2021/10/07 00:13:05;;;;;;;6.15;3.13;;;10.80;94.40;;;;;;2108886;28;20493;-91
2021/10/07 00:14:25;;;;;;;7.47;3.08;;;10.80;94.40;;;;;;2094012;28;20044;-90
2021/10/07 00:15:45;;;;;;;7.00;2.85;;;10.80;94.40;;;;;;2115859;28;20071;-90
2021/10/07 00:17:04;;;;;;;4.78;2.90;;;10.90;94.40;;;;;;2126906;28;20027;-89
2021/10/07 00:18:23;;;;;;;6.72;3.42;;;10.80;94.40;;;;;;2118650;27;20051;-91
2021/10/07 00:19:43;;;;;;;4.60;3.15;;;10.80;94.40;;;;;;2114886;28;20035;-90
2021/10/07 00:21:03;;;;;;;4.82;3.20;;;10.80;94.40;;;;;;2108439;28;20051;-91
2021/10/07 00:22:23;;;;;;;5.28;3.20;;;10.80;94.40;;;;;;2099996;28;20040;-91
2021/10/07 00:23:55;;;;;;;6.80;2.97;;;10.80;94.40;;;;;;2104917;28;20036;-90
2021/10/07 00:25:16;;;;;;;4.95;3.45;;;10.80;94.40;;;;;;2108577;28;20032;-90
2021/10/07 00:26:47;;;;;;;6.97;3.15;;;10.80;94.40;;;;;;2109273;28;20036;-90
2021/10/07 00:28:09;;;;;;;5.95;3.50;;;10.80;94.40;;;;;;2110035;28;20032;-90
2021/10/07 00:30:57;;;;;;;4.97;2.97;;;10.80;94.40;;;;;;2097120;28;20067;-90
2021/10/07 00:32:23;;;;;;;6.28;2.83;;;10.80;94.40;;;;;;2089130;28;20057;-90
2021/10/07 00:34:35;;;;;;;4.53;3.13;;;10.70;94.40;;;;;;2089458;28;20041;-89
2021/10/07 00:37:04;;;;;;;3.83;2.90;;;10.70;94.40;;;;;;2103116;28;20040;-90
2021/10/07 00:40:01;;;;;;;4.15;2.85;;;10.80;94.40;;;;;;2099881;28;20044;-90
2021/10/07 00:41:20;;;;;;;3.92;2.92;;;10.80;94.40;;;;;;2091004;28;20037;-89
2021/10/07 00:42:39;;;;;;;4.60;2.85;;;10.80;94.40;;;;;;2093107;28;20535;-89
2021/10/07 00:44:05;;;;;;;3.72;2.70;;;10.80;94.40;;;;;;2087952;28;20041;-91
2021/10/07 00:45:25;;;;;;;3.83;2.72;;;10.80;94.40;;;;;;2103471;28;20482;-89
2021/10/07 00:46:46;;;;;;;3.72;2.72;;;10.80;94.40;;;;;;2106839;28;20036;-90
2021/10/07 00:48:05;;;;;;;;;;;10.80;94.40;;;;;;2099773;28;20033;-89
2021/10/07 00:49:24;;;;;;;3.30;2.50;;;10.80;94.30;;;;;;2104205;28;19915;-90
2021/10/07 00:50:45;;;;;;;3.38;2.30;;;10.80;94.30;;;;;;2108439;28;20044;-89
2021/10/07 00:52:04;;;;;;;3.60;2.42;;;10.80;94.30;;;;;;2107892;28;20410;-89
2021/10/07 00:53:23;;;;;;;5.53;2.90;;;10.80;94.30;;;;;;2108353;28;20075;-89
2021/10/07 00:54:44;;;;;;;7.10;3.00;;;10.80;94.30;;;;;;2097948;28;20045;-90
2021/10/07 00:56:04;;;;;;;;;;;10.80;94.30;;;;;;2104742;28;20036;-90
2021/10/07 00:57:24;;;;;;;4.85;2.92;;;10.80;94.30;;;;;;2107914;28;20007;-89
2021/10/07 00:58:44;;;;;;;5.13;2.92;;;10.80;94.30;;;;;;2108199;28;20040;-90
2021/10/07 01:00:03;;;;;;;4.82;3.08;;;10.80;94.30;;;;;;2107533;28;20044;-90
2021/10/07 01:01:22;;;;;;;5.10;3.35;;;10.80;94.30;;;;;;2106807;28;20482;-89
2021/10/07 01:02:41;;;;;;;5.22;3.42;;;10.80;94.30;;;;;;2108267;28;20067;-89
2021/10/07 01:04:00;;;;;;;5.35;3.55;;;10.80;94.30;;;;;;2099247;28;20431;-90
2021/10/07 01:05:21;;;;;;;6.43;3.03;;;10.80;94.40;;;;;;2104525;28;20040;-89
2021/10/07 01:06:42;;;;;;;5.55;3.33;;;10.80;94.30;;;;;;2106950;28;20040;-90
2021/10/07 01:08:01;;;;;;;6.45;3.67;;;10.90;94.30;;;;;;2090660;28;20033;-90
2021/10/07 01:09:20;;;;;;;5.90;3.60;;;10.90;94.30;;;;;;2104140;28;20048;-89
2021/10/07 01:10:40;;;;;;;5.93;3.30;;;10.90;94.40;;;;;;2107890;28;20482;-89
2021/10/07 01:12:01;;;;;;;12.90;3.70;;;10.90;94.60;;;;;;2102486;28;20071;-90
2021/10/07 01:13:20;;;;;;;6.50;3.58;;;10.90;94.40;;;;;;2090831;28;20033;-89
2021/10/07 01:14:57;;;;;;;7.32;3.75;;;10.90;94.30;;;;;;2096432;28;20041;-90
2021/10/07 01:16:17;;;;;;;8.57;3.78;;;10.90;94.30;;;;;;2102442;28;20135;-89
2021/10/07 01:17:36;;;;;;;10.98;3.70;;;10.90;94.30;;;;;;2105034;28;20043;-89
2021/10/07 01:18:56;;;;;;;4.93;3.35;;;11.00;94.30;;;;;;2106612;28;20093;-89
2021/10/07 01:20:17;;;;;;;6.90;3.65;;;10.90;94.30;;;;;;2109124;28;20405;-89
2021/10/07 01:21:36;;;;;;;;;;;10.90;94.30;;;;;;2101764;28;20040;-89
2021/10/07 01:22:56;;;;;;;4.95;3.28;;;10.90;94.30;;;;;;2113180;28;19908;-90
2021/10/07 01:24:14;;;;;;;5.07;3.60;;;11.00;94.30;;;;;;2116556;28;20114;-89
2021/10/07 01:25:34;;;;;;;5.57;3.17;;;10.90;94.30;;;;;;2109112;28;20044;-90
2021/10/07 01:26:53;;;;;;;5.57;3.47;;;11.00;94.30;;;;;;2114025;27;20023;-89
2021/10/07 01:28:12;;;;;;;6.68;3.22;;;11.00;94.30;;;;;;2116750;27;20040;-90
2021/10/07 01:29:32;;;;;;;4.95;3.58;;;11.00;94.30;;;;;;2116462;28;20028;-90
2021/10/07 01:30:51;;;;;;;4.32;3.17;;;11.00;94.30;;;;;;2107112;28;20482;-91
2021/10/07 01:32:10;;;;;;;8.23;3.55;;;11.00;94.30;;;;;;2109377;28;20036;-90
2021/10/07 01:33:30;;;;;;;5.15;3.60;;;11.00;94.40;;;;;;2116446;28;20043;-90
2021/10/07 01:34:49;;;;;;;5.88;3.90;;;11.10;94.40;;;;;;2116281;28;20044;-90
2021/10/07 01:36:09;;;;;;;5.47;3.53;;;11.00;94.40;;;;;;2117415;27;20516;-89
2021/10/07 01:37:28;;;;;;;7.30;3.42;;;11.10;94.40;;;;;;2110603;28;20099;-90
2021/10/07 01:38:47;;;;;;;6.05;3.47;;;11.10;94.40;;;;;;2112890;28;20473;-90
2021/10/07 01:40:11;;;;;;;5.60;3.17;;;11.10;94.40;;;;;;2114850;27;20051;-90
2021/10/07 01:41:30;;;;;;;5.00;3.20;;;11.10;94.40;;;;;;2115769;28;20028;-89
2021/10/07 01:42:50;;;;;;;6.47;3.63;;;11.10;94.40;;;;;;2116194;28;20114;-90
2021/10/07 01:44:09;;;;;;;6.82;3.58;;;11.10;94.40;;;;;;2107712;28;20414;-89
2021/10/07 01:45:28;;;;;;;7.82;3.30;;;11.10;94.40;;;;;;2107963;28;20032;-89
2021/10/07 01:46:48;;;;;;;6.47;3.58;;;11.10;94.30;;;;;;2110763;28;20413;-90
2021/10/07 01:48:07;;;;;;;4.90;3.35;;;11.10;94.30;;;;;;2101733;28;20398;-89
2021/10/07 01:49:27;;;;;;;6.47;3.60;;;11.10;94.30;;;;;;2106232;28;20040;-90
2021/10/07 01:50:46;;;;;;;6.05;3.33;;;11.10;94.30;;;;;;2116389;28;20466;-90
2021/10/07 01:52:06;;;;;;;5.30;3.50;;;11.20;94.40;;;;;;2117216;28;20569;-90
2021/10/07 01:53:25;;;;;;;4.90;3.40;;;11.10;94.30;;;;;;2116381;28;20044;-90
2021/10/07 01:54:44;;;;;;;5.47;3.60;;;11.10;94.30;;;;;;2117241;27;20039;-90
2021/10/07 01:56:03;;;;;;;6.38;3.25;;;11.10;94.30;;;;;;2106697;28;20075;-90
2021/10/07 01:57:23;;;;;;;8.65;3.20;;;11.10;94.30;;;;;;2112104;28;20063;-90
2021/10/07 01:58:42;;;;;;;5.82;2.90;;;11.10;94.30;;;;;;2116455;28;20040;-90
2021/10/07 02:00:00;;;;;;;4.88;2.80;;;11.10;94.40;;;;;;2107613;28;20040;-90
2021/10/07 02:01:19;;;;;;;6.40;2.80;;;11.10;94.40;;;;;;2113878;28;20122;-90
2021/10/07 02:02:39;;;;;;;3.92;2.75;;;11.00;94.40;;;;;;2121491;27;20015;-90
2021/10/07 02:04:01;;;;;;;5.95;2.80;;;11.00;94.40;;;;;;2115873;28;20032;-90
2021/10/07 02:05:20;;;;;;;5.38;2.70;;;11.00;94.40;;;;;;2116691;28;20012;-90
2021/10/07 02:06:39;;;;;;;4.30;2.40;;;11.00;94.40;;;;;;2115185;28;20013;-91
2021/10/07 02:07:58;;;;;;;5.32;2.75;;;11.00;94.40;;;;;;2115863;28;20031;-90
2021/10/07 02:09:18;;;;;;;3.80;2.70;;;11.00;94.50;;;;;;2106768;28;20032;-90
2021/10/07 02:10:37;;;;;;;3.92;2.67;;;11.00;94.50;;;;;;2106744;28;20043;-90
2021/10/07 02:11:56;;;;;;;4.65;2.50;;;10.90;94.50;;;;;;2112176;28;20035;-90
2021/10/07 02:13:15;;;;;;;4.35;2.33;;;10.90;94.50;;;;;;2107632;28;20044;-90
2021/10/07 02:14:34;;;;;;;3.65;2.33;;;11.00;94.50;;;;;;2122498;27;20027;-90
2021/10/07 02:15:53;;;;;;;3.75;2.55;;;10.90;94.50;;;;;;2120872;27;20047;-89
2021/10/07 02:17:12;;;;;;;5.13;2.67;;;10.90;94.50;;;;;;2105185;28;20033;-90
2021/10/07 02:18:32;;;;;;;4.03;2.78;;;10.90;94.60;;;;;;2087172;28;20076;-90
2021/10/07 02:19:51;;;;;;;4.47;2.47;;;10.90;94.80;;;;;;2081999;28;20033;-90
2021/10/07 02:21:11;;;;;;;4.28;2.45;;;10.90;94.60;;;;;;2084205;28;20358;-90
2021/10/07 02:22:30;;;;;;;5.00;2.72;;;10.90;94.60;;;;;;2106020;28;20044;-90
2021/10/07 02:23:50;;;;;;;6.65;2.60;;;10.90;94.50;;;;;;2115008;28;20043;-89
2021/10/07 02:25:10;;;;;;;5.05;2.50;;;10.90;94.50;;;;;;2114816;28;20389;-90
2021/10/07 02:26:29;;;;;;;4.63;2.33;;;10.90;94.50;;;;;;2107253;28;20028;-90
2021/10/07 02:27:48;;;;;;;4.35;2.63;;;10.90;94.50;;;;;;2104420;28;20040;-89
2021/10/07 02:29:08;;;;;;;4.32;2.70;;;10.90;94.50;;;;;;2102790;28;20459;-89
2021/10/07 02:30:27;;;;;;;7.75;2.83;;;10.90;94.60;;;;;;2110137;27;20035;-90
2021/10/07 02:31:47;;;;;;;5.93;2.80;;;10.90;94.60;;;;;;2124379;27;20043;-91
2021/10/07 02:33:06;;;;;;;4.15;2.50;;;10.90;94.50;;;;;;2122099;27;20043;-90
2021/10/07 02:34:25;;;;;;;6.50;2.60;;;10.90;94.50;;;;;;2100700;28;20041;-89
2021/10/07 02:35:44;;;;;;;6.15;2.67;;;10.90;94.50;;;;;;2110258;28;20044;-89
2021/10/07 02:37:03;;;;;;;8.88;2.80;;;10.90;94.50;;;;;;2115803;28;20047;-90
2021/10/07 02:38:23;;;;;;;10.63;2.83;;;10.90;94.50;;;;;;2115931;27;20035;-89
2021/10/07 02:39:42;;;;;;;4.70;2.58;;;10.90;94.50;;;;;;2115915;28;20040;-90
2021/10/07 02:41:01;;;;;;;10.35;2.75;;;10.90;94.50;;;;;;2106668;28;20488;-90
2021/10/07 02:42:21;;;;;;;6.55;2.58;;;10.90;94.50;;;;;;2112300;28;20036;-89
2021/10/07 02:43:40;;;;;;;9.95;2.80;;;10.90;94.80;;;;;;2115717;28;20047;-90
2021/10/07 02:44:59;;;;;;;7.68;2.80;;;11.00;94.50;;;;;;2115465;28;20032;-89
2021/10/07 02:46:18;;;;;;;9.43;2.78;;;11.00;94.50;;;;;;2106655;28;20044;-90
2021/10/07 02:47:38;;;;;;;16.38;3.00;;;10.90;94.50;;;;;;2111346;28;20540;-89
2021/10/07 02:48:57;;;;;;;10.13;2.33;;;10.90;94.50;;;;;;2115806;28;20035;-90
2021/10/07 02:50:17;;;;;;;7.70;2.78;;;10.90;94.50;;;;;;2099384;28;20059;-90
2021/10/07 02:51:37;;;;;;;10.55;3.00;;;10.90;94.50;;;;;;2120608;28;20020;-90
2021/10/07 02:52:56;;;;;;;12.88;2.60;;;10.90;94.50;;;;;;2124688;28;20087;-89
2021/10/07 02:54:15;;;;;;;9.43;2.78;;;10.90;94.50;;;;;;2100936;28;20087;-90
2021/10/07 02:55:34;;;;;;;6.72;2.70;;;10.90;94.50;;;;;;2117219;27;20435;-90
2021/10/07 02:56:53;;;;;;;9.52;2.60;;;10.90;94.40;;;;;;2110087;28;20505;-90
2021/10/07 02:58:13;;;;;;;23.77;2.80;;;11.00;94.50;;;;;;2107532;28;20406;-90
2021/10/07 02:59:32;;;;;;;14.60;2.70;;;11.00;94.40;;;;;;2106828;28;20490;-90
2021/10/07 03:00:51;;;;;;;16.27;2.45;;;11.00;94.40;;;;;;2115387;28;20044;-90
2021/10/07 03:02:10;;;;;;;14.73;2.67;;;10.90;94.40;;;;;;2115550;28;20421;-91
2021/10/07 03:03:29;;;;;;;14.45;2.60;;;11.00;94.40;;;;;;2115198;28;20067;-90
2021/10/07 03:04:52;;;;;;;16.25;2.70;;;10.90;94.40;;;;;;2115220;28;20039;-90
2021/10/07 03:06:11;;;;;;;14.35;2.60;;;10.90;94.40;;;;;;2115765;28;20039;-90
2021/10/07 03:07:31;;;;;;;17.63;2.30;;;10.90;94.40;;;;;;2106163;28;20036;-90
2021/10/07 03:08:50;;;;;;;16.67;2.47;;;10.90;94.50;;;;;;2107237;28;20043;-90
2021/10/07 03:10:10;;;;;;;9.65;2.47;;;10.90;94.50;;;;;;2105779;28;20040;-89
2021/10/07 03:11:29;;;;;;;13.05;2.38;;;10.90;94.50;;;;;;2112306;28;20035;-91
2021/10/07 03:12:48;;;;;;;18.63;2.33;;;10.90;94.70;;;;;;2115159;28;20358;-90
2021/10/07 03:14:08;;;;;;;9.25;2.40;;;10.90;94.50;;;;;;2106858;28;20040;-90
2021/10/07 03:15:27;;;;;;;11.57;2.35;;;10.90;94.50;;;;;;2103260;28;20072;-90
2021/10/07 03:16:46;;;;;;;9.43;2.42;;;10.90;94.50;;;;;;2112163;28;20489;-90
2021/10/07 03:18:05;;;;;;;10.35;2.25;;;10.90;94.50;;;;;;2112273;28;20047;-90
2021/10/07 03:19:24;;;;;;;10.05;2.35;;;10.90;94.70;;;;;;2112551;28;20130;-90
2021/10/07 03:20:43;;;;;;;7.75;2.15;;;10.90;94.40;;;;;;2115573;28;20048;-90
2021/10/07 03:22:03;;;;;;;10.27;1.90;;;10.90;94.50;;;;;;2106892;28;20485;-90
2021/10/07 03:23:23;;;;;;;16.77;2.03;;;10.90;94.40;;;;;;2098983;28;20048;-90
2021/10/07 03:24:43;;;;;;;13.60;1.90;;;10.90;94.40;;;;;;2101274;28;20044;-90
2021/10/07 03:26:02;;;;;;;;;;;10.80;94.40;;;;;;2100118;28;20061;-90
2021/10/07 03:27:22;;;;;;;10.07;1.63;;;10.80;94.30;;;;;;2105764;28;19912;-91
2021/10/07 03:28:41;;;;;;;12.30;1.67;;;10.80;94.30;;;;;;2106821;28;20091;-90
2021/10/07 03:30:00;;;;;;;6.32;1.60;;;10.80;94.30;;;;;;2099323;28;20044;-90
2021/10/07 03:31:19;;;;;;;4.85;1.15;;;10.80;94.40;;;;;;2098635;28;20036;-89
2021/10/07 03:32:38;;;;;;;4.28;1.65;;;10.70;94.30;;;;;;2103080;28;20048;-90
2021/10/07 03:33:57;;;;;;;6.63;1.40;;;10.70;94.30;;;;;;2107319;28;20486;-90
2021/10/07 03:35:16;;;;;;;4.53;1.50;;;10.70;94.40;;;;;;2107009;28;20029;-90
2021/10/07 03:36:36;;;;;;;5.93;1.45;;;10.70;94.40;;;;;;2110823;28;20051;-90
2021/10/07 03:37:55;;;;;;;5.05;1.48;;;10.70;94.40;;;;;;2091115;28;20069;-90
2021/10/07 03:39:14;;;;;;;5.97;1.40;;;10.70;94.40;;;;;;2103046;28;20048;-90
2021/10/07 03:40:34;;;;;;;6.63;1.63;;;10.60;94.30;;;;;;2098286;28;20123;-89
2021/10/07 03:41:53;;;;;;;6.32;1.65;;;10.60;94.40;;;;;;2101868;28;20068;-90
2021/10/07 03:43:12;;;;;;;5.72;1.50;;;10.60;94.40;;;;;;2106376;28;20036;-91
2021/10/07 03:44:31;;;;;;;3.13;1.30;;;10.50;94.40;;;;;;2103445;28;20032;-90
2021/10/07 03:45:50;;;;;;;3.45;1.48;;;10.50;94.50;;;;;;2101901;28;20044;-90
2021/10/07 03:47:10;;;;;;;5.63;1.48;;;10.50;94.50;;;;;;2100773;28;20040;-91
2021/10/07 03:48:29;;;;;;;6.07;1.30;;;10.50;94.50;;;;;;2099546;28;20040;-90
2021/10/07 03:49:48;;;;;;;1.90;1.40;;;10.50;94.50;;;;;;2106014;28;20040;-91
2021/10/07 03:51:07;;;;;;;3.30;1.60;;;10.50;94.60;;;;;;2107460;28;20056;-90
2021/10/07 03:52:27;;;;;;;1.25;1.10;;;10.50;94.50;;;;;;2096552;28;20494;-90
2021/10/07 03:53:46;;;;;;;1.50;1.15;;;10.50;94.80;;;;;;2105085;28;20036;-91
2021/10/07 03:55:06;;;;;;;3.38;1.35;;;10.50;94.50;;;;;;2106202;28;20035;-90
2021/10/07 03:56:25;;;;;;;2.85;1.30;;;10.50;94.50;;;;;;2107941;28;20056;-90
2021/10/07 03:57:44;;;;;;;4.25;1.50;;;10.40;94.50;;;;;;2099480;28;20049;-89
2021/10/07 03:59:03;;;;;;;7.13;1.50;;;10.50;94.50;;;;;;2101074;28;20040;-89
2021/10/07 04:00:23;;;;;;;4.30;1.40;;;10.50;94.50;;;;;;2091545;28;20109;-90
2021/10/07 04:01:42;;;;;;;8.15;1.85;;;10.40;94.50;;;;;;2100419;28;20398;-90
2021/10/07 04:03:05;;;;;;;10.35;1.70;;;10.50;94.50;;;;;;2091423;28;20479;-91
2021/10/07 04:04:24;;;;;;;4.82;1.70;;;10.40;94.40;;;;;;2097419;28;20049;-90
2021/10/07 04:05:43;;;;;;;8.75;1.60;;;10.50;94.40;;;;;;2100274;28;20036;-90
2021/10/07 04:07:02;;;;;;;11.55;1.80;;;10.50;94.40;;;;;;2103326;28;20032;-90
2021/10/07 04:08:22;;;;;;;8.00;1.67;;;10.50;94.30;;;;;;2108560;28;20040;-89
2021/10/07 04:09:41;;;;;;;9.57;1.50;;;10.50;94.30;;;;;;2105541;28;20040;-90
2021/10/07 04:11:00;;;;;;;9.68;1.70;;;10.50;94.30;;;;;;2107251;28;20342;-89
2021/10/07 04:12:19;;;;;;;11.52;2.00;;;10.40;94.30;;;;;;2103128;28;20036;-89
2021/10/07 04:13:39;;;;;;;3.80;1.75;;;10.40;94.40;;;;;;2111352;28;20099;-90
2021/10/07 04:14:59;;;;;;;4.43;1.60;;;10.40;94.40;;;;;;2105843;28;20060;-90
2021/10/07 04:16:18;;;;;;;4.65;1.70;;;10.40;94.40;;;;;;2111795;28;20040;-88
2021/10/07 04:17:37;;;;;;;7.07;1.55;;;10.40;94.40;;;;;;2108126;28;20032;-89
2021/10/07 04:18:56;;;;;;;3.60;1.60;;;10.40;94.40;;;;;;2098086;28;20040;-89
2021/10/07 04:20:15;;;;;;;8.13;1.70;;;10.40;94.40;;;;;;2107246;28;20350;-89
2021/10/07 04:21:35;;;;;;;11.52;2.05;;;10.40;94.40;;;;;;2114254;28;20048;-89
2021/10/07 04:22:54;;;;;;;6.63;1.55;;;10.40;94.40;;;;;;2107783;28;20040;-90
2021/10/07 04:24:14;;;;;;;8.48;1.67;;;10.40;94.40;;;;;;2100849;28;20028;-89
2021/10/07 04:25:33;;;;;;;6.75;1.70;;;10.40;94.40;;;;;;2113475;28;20477;-89
2021/10/07 04:26:52;;;;;;;7.68;1.70;;;10.40;94.40;;;;;;2110521;28;20040;-89
2021/10/07 04:28:12;;;;;;;6.65;1.60;;;10.40;94.40;;;;;;2105517;28;20036;-90
2021/10/07 04:29:31;;;;;;;5.47;1.60;;;10.40;94.40;;;;;;2113459;28;20032;-90
2021/10/07 04:30:51;;;;;;;9.63;1.70;;;10.40;94.40;;;;;;2116775;28;20497;-90
2021/10/07 04:32:10;;;;;;;6.00;1.67;;;10.40;94.30;;;;;;2107807;28;20118;-90
2021/10/07 04:33:29;;;;;;;3.72;1.55;;;10.40;94.40;;;;;;2110706;28;20470;-90
2021/10/07 04:34:48;;;;;;;8.00;1.70;;;10.40;94.40;;;;;;2116156;28;20036;-91
2021/10/07 04:36:08;;;;;;;6.20;1.63;;;10.40;94.30;;;;;;2103833;28;20530;-90
2021/10/07 04:37:28;;;;;;;9.00;1.73;;;10.40;94.30;;;;;;2111703;28;20079;-90
2021/10/07 04:38:48;;;;;;;11.15;1.70;;;10.30;94.30;;;;;;2096944;28;20052;-90
2021/10/07 04:40:08;;;;;;;12.68;1.80;;;10.30;94.40;;;;;;2101388;28;20043;-90
2021/10/07 04:41:27;;;;;;;4.75;1.45;;;10.30;94.40;;;;;;2103347;28;20060;-91
2021/10/07 04:42:46;;;;;;;10.32;1.77;;;10.30;94.40;;;;;;2110490;28;20040;-89
2021/10/07 04:44:06;;;;;;;10.60;1.70;;;10.20;94.40;;;;;;2111239;28;20047;-90
2021/10/07 04:45:26;;;;;;;4.22;1.70;;;10.20;94.40;;;;;;2115719;28;20032;-90
2021/10/07 04:46:45;;;;;;;11.07;1.70;;;10.20;94.40;;;;;;2115493;28;20111;-90
2021/10/07 04:48:05;;;;;;;4.15;1.58;;;10.20;94.70;;;;;;2091143;28;20048;-90
2021/10/07 04:49:24;;;;;;;4.55;1.45;;;10.20;94.40;;;;;;2105875;28;20043;-91
2021/10/07 04:50:43;;;;;;;8.45;1.52;;;10.20;94.50;;;;;;2111702;28;20035;-90
2021/10/07 04:52:03;;;;;;;4.03;1.50;;;10.20;94.50;;;;;;2117522;28;20044;-90
2021/10/07 04:53:23;;;;;;;4.00;1.50;;;10.10;94.40;;;;;;2112942;28;20039;-90
2021/10/07 04:54:42;;;;;;;28.53;3.50;;;10.10;94.50;;;;;;2105654;28;20088;-89
2021/10/07 04:56:02;;;;;;;7.50;1.50;;;10.10;94.50;;;;;;2108336;28;20290;-90
2021/10/07 04:57:22;;;;;;;2.97;1.63;;;10.10;94.50;;;;;;2112985;28;20119;-89
2021/10/07 04:58:41;;;;;;;2.88;1.50;;;10.10;94.40;;;;;;2114664;28;20036;-89
2021/10/07 05:00:01;;;;;;;5.82;1.50;;;10.10;94.50;;;;;;2105768;28;20028;-90
2021/10/07 05:01:20;;;;;;;4.63;1.40;;;10.10;94.50;;;;;;2113172;28;20044;-90
2021/10/07 05:02:40;;;;;;;3.70;1.50;;;10.10;94.50;;;;;;2116870;28;20035;-90
2021/10/07 05:04:00;;;;;;;4.55;1.40;;;10.10;94.50;;;;;;2122589;28;20039;-88
2021/10/07 05:05:20;;;;;;;5.63;1.70;;;10.10;94.50;;;;;;2115169;28;20091;-90
2021/10/07 05:06:39;;;;;;;3.28;1.65;;;10.10;94.40;;;;;;2103071;28;20036;-89
2021/10/07 05:07:58;;;;;;;8.45;1.60;;;10.10;94.40;;;;;;2094066;28;20044;-89
2021/10/07 05:09:17;;;;;;;5.55;1.50;;;10.00;94.40;;;;;;2093476;28;20040;-89
2021/10/07 05:10:38;;;;;;;11.30;1.67;;;10.00;94.40;;;;;;2102949;28;20036;-90
2021/10/07 05:11:57;;;;;;;9.75;1.35;;;10.00;94.40;;;;;;2112277;28;20047;-89
2021/10/07 05:13:17;;;;;;;7.43;1.60;;;10.00;94.40;;;;;;2107591;28;20044;-89
2021/10/07 05:14:36;;;;;;;2.85;1.48;;;10.00;94.40;;;;;;2105228;28;20044;-90
2021/10/07 05:15:56;;;;;;;6.22;1.50;;;10.00;94.40;;;;;;2108921;28;20040;-91
2021/10/07 05:17:15;;;;;;;7.63;1.60;;;10.00;94.50;;;;;;2095416;28;20495;-91
2021/10/07 05:18:34;;;;;;;1.92;1.50;;;10.00;94.50;;;;;;2106942;28;20040;-91
2021/10/07 05:19:53;;;;;;;4.38;1.48;;;10.00;94.40;;;;;;2099421;28;20453;-91
2021/10/07 05:21:13;;;;;;;2.35;1.30;;;9.90;94.40;;;;;;2088100;28;20033;-90
2021/10/07 05:22:32;;;;;;;3.05;1.10;;;9.90;94.40;;;;;;2098881;28;20052;-89
2021/10/07 05:23:51;;;;;;;4.07;1.33;;;9.90;94.40;;;;;;2108484;28;20040;-90
2021/10/07 05:25:11;;;;;;;1.58;1.30;;;9.90;94.40;;;;;;2108794;28;20115;-90
2021/10/07 05:26:30;;;;;;;1.20;1.10;;;9.90;94.40;;;;;;2107005;28;20067;-91
2021/10/07 05:27:49;;;;;;;1.50;1.23;;;9.80;94.40;;;;;;2098448;28;20037;-91
2021/10/07 05:29:08;;;;;;;2.25;1.10;;;9.80;94.40;;;;;;2094552;28;20064;-90
2021/10/07 05:30:28;;;;;;;1.67;1.27;;;9.70;94.40;;;;;;2104317;28;20037;-91
2021/10/07 05:31:49;;;;;;;1.40;1.20;;;9.70;94.40;;;;;;2105298;28;20118;-87
2021/10/07 05:33:08;;;;;;;1.98;1.50;;;9.70;94.40;;;;;;2105944;28;20288;-89
2021/10/07 05:34:27;;;;;;;1.23;1.05;;;9.60;94.40;;;;;;2100354;28;20079;-89
2021/10/07 05:35:46;;;;;;;1.33;1.10;;;9.60;94.50;;;;;;2106447;28;20090;-88
2021/10/07 05:37:05;;;;;;;1.30;1.02;;;9.60;94.50;;;;;;2099053;28;20036;-89
2021/10/07 05:38:24;;;;;;;1.17;1.00;;;9.60;94.50;;;;;;2103904;28;20402;-89
2021/10/07 05:39:43;;;;;;;1.67;1.23;;;9.60;94.40;;;;;;2099394;28;20033;-89
2021/10/07 05:41:03;;;;;;;1.33;1.10;;;9.50;94.40;;;;;;2103544;28;20032;-89
2021/10/07 05:42:23;;;;;;;1.20;1.10;;;9.50;94.40;;;;;;2094914;28;20499;-91
2021/10/07 05:43:42;;;;;;;1.60;1.20;;;9.50;94.40;;;;;;2091836;28;20036;-89
2021/10/07 05:45:01;;;;;;;1.50;1.10;;;9.40;94.40;;;;;;2095943;28;20033;-89
2021/10/07 05:46:21;;;;;;;1.50;1.25;;;9.40;94.40;;;;;;2105785;28;20044;-89
2021/10/07 05:47:40;;;;;;;1.52;1.23;;;9.40;94.40;;;;;;2106067;28;20063;-89
2021/10/07 05:49:00;;;;;;;1.30;1.08;;;9.30;94.50;;;;;;2097095;28;20514;-88
2021/10/07 05:50:19;;;;;;;1.60;1.20;;;9.30;94.50;;;;;;2096108;28;20036;-89
2021/10/07 05:51:39;;;;;;;1.33;1.08;;;9.30;94.50;;;;;;2090519;28;20036;-89
2021/10/07 05:52:58;;;;;;;1.85;1.30;;;9.20;94.70;;;;;;2088662;28;20511;-89
2021/10/07 05:54:19;;;;;;;1.73;1.23;;;9.20;94.50;;;;;;2090381;28;20044;-89
2021/10/07 05:55:38;;;;;;;1.58;1.13;;;9.20;94.50;;;;;;2084312;28;20045;-89
2021/10/07 05:56:57;;;;;;;2.30;1.48;;;9.20;94.50;;;;;;2100759;28;20048;-89
2021/10/07 05:58:17;;;;;;;2.25;1.50;;;9.20;94.50;;;;;;2099238;28;20033;-89
2021/10/07 05:59:36;;;;;;;2.17;1.50;;;9.10;94.60;;;;;;2099312;28;20071;-89
2021/10/07 06:00:55;;;;;;;1.75;1.40;;;9.10;94.60;;;;;;2098500;28;20040;-89
2021/10/07 06:02:14;;;;;;;1.92;1.15;;;9.20;94.60;;;;;;2105308;28;20221;-89
2021/10/07 06:03:33;;;;;;;2.10;1.40;;;9.20;94.60;;;;;;2098466;28;20076;-87
2021/10/07 06:04:52;;;;;;;1.98;1.40;;;9.10;94.60;;;;;;2103508;28;20048;-90
2021/10/07 06:06:11;;;;;;;2.05;1.52;;;9.20;94.60;;;;;;2107441;28;20482;-90
2021/10/07 06:07:31;;;;;;;1.95;1.60;;;9.20;94.60;;;;;;2098209;28;20445;-90
2021/10/07 06:08:50;;;;;;;2.75;1.70;;;9.20;94.50;;;;;;2088567;28;20083;-90
2021/10/07 06:10:09;;;;;;;2.33;1.58;;;9.10;94.50;;;;;;2103967;28;20048;-90
2021/10/07 06:11:28;;;;;;;2.10;1.58;;;9.20;94.50;;;;;;2104300;28;20478;-90
2021/10/07 06:12:48;;;;;;;2.35;1.65;;;9.20;94.50;;;;;;2097695;28;20033;-91
2021/10/07 06:14:05;;;;;;;2.28;1.70;;;9.20;94.50;;;;;;2087676;28;20483;-85
2021/10/07 06:15:27;;;;;;;6.60;1.95;;;9.20;94.50;;;;;;2104220;28;20154;-92
2021/10/07 06:16:47;;;;;;;;;;;9.20;94.50;;;;;;2091722;28;20033;-91
2021/10/07 06:18:06;;;;;;;2.75;2.05;;;9.30;94.50;;;;;;2102445;28;20346;-91
2021/10/07 06:19:29;;;;;;;3.42;1.70;;;9.30;94.40;;;;;;2098131;28;20036;-91
2021/10/07 06:20:48;;;;;;;3.45;1.45;;;9.30;94.40;;;;;;2097705;28;20044;-91
2021/10/07 06:22:07;;;;;;;3.80;1.80;;;9.30;94.40;;;;;;2094608;28;20049;-90
2021/10/07 06:23:27;;;;;;;7.47;2.08;;;9.40;94.40;;;;;;2102035;28;20036;-90
2021/10/07 06:24:46;;;;;;;4.07;1.95;;;9.40;94.30;;;;;;2106719;28;20028;-91
2021/10/07 06:26:05;;;;;;;6.03;1.90;;;9.40;94.30;;;;;;2098395;28;20040;-89
2021/10/07 06:27:24;;;;;;;7.50;1.85;;;9.40;94.20;;;;;;2101684;28;20429;-89
2021/10/07 06:28:46;;;;;;;5.47;2.10;;;9.40;94.20;;;;;;2103618;28;20036;-88
2021/10/07 06:30:06;;;;;;;4.07;1.80;;;9.50;94.20;;;;;;2106938;28;20036;-88
2021/10/07 06:31:25;;;;;;;3.53;2.00;;;9.50;94.20;;;;;;2097891;28;20044;-89
2021/10/07 06:32:46;;;;;;;9.93;2.08;;;9.50;94.30;;;;;;2098838;28;20275;-87
2021/10/07 06:34:06;;;;;;;6.47;1.90;;;9.50;94.30;;;;;;2107156;28;20493;-89
2021/10/07 06:35:26;;;;;;;5.22;2.13;;;9.50;94.20;;;;;;2105308;28;20040;-88
2021/10/07 06:36:45;;;;;;;7.95;2.05;;;9.50;94.20;;;;;;2107091;28;20118;-88
2021/10/07 06:38:05;;;;;;;3.28;2.10;;;9.60;94.30;;;;;;2101054;28;20048;-89
2021/10/07 06:39:24;;;;;;;23.45;2.72;;;9.60;94.30;;;;;;2107199;28;20199;-88
2021/10/07 06:40:43;;;;;;;26.48;2.83;;;9.60;94.30;;;;;;2096509;28;20048;-88
2021/10/07 06:42:03;;;;;;;11.23;2.38;;;9.60;94.20;;;;;;2097216;28;20036;-87
2021/10/07 06:43:22;;;;;;;10.90;2.30;;;9.60;94.20;;;;;;2097509;28;20052;-89
2021/10/07 06:44:41;;;;;;;13.52;2.45;;;9.60;94.20;;;;;;2095174;28;20036;-89
2021/10/07 06:46:01;;;;;;;11.07;2.53;;;9.60;94.20;;;;;;2102852;28;20418;-88
2021/10/07 06:47:20;;;;;;;4.30;2.40;;;9.70;94.20;;;;;;2105204;28;20123;-88
2021/10/07 06:48:40;;;;;;;8.65;2.40;;;9.60;94.20;;;;;;2096453;28;20067;-89
2021/10/07 06:50:00;;;;;;;20.08;2.90;;;9.60;94.20;;;;;;2095748;28;20044;-89
2021/10/07 06:51:19;;;;;;;12.10;2.58;;;9.70;94.20;;;;;;2102709;28;20029;-89
2021/10/07 06:52:42;;;;;;;9.27;2.30;;;9.70;94.20;;;;;;2094530;28;20044;-89
2021/10/07 06:54:03;;;;;;;10.43;2.25;;;9.70;94.10;;;;;;2091934;28;20048;-88
2021/10/07 06:55:23;;;;;;;15.15;2.70;;;9.70;94.20;;;;;;2103194;28;20078;-89
2021/10/07 06:56:42;;;;;;;12.27;2.50;;;9.80;94.20;;;;;;2106471;28;20067;-88
2021/10/07 06:58:01;;;;;;;10.40;2.30;;;9.80;94.20;;;;;;2093470;28;20067;-89
2021/10/07 06:59:20;;;;;;;12.40;2.88;;;9.80;94.10;;;;;;2092995;28;20040;-88
2021/10/07 07:00:40;;;;;;;16.40;2.60;;;9.80;94.20;;;;;;2101132;28;20028;-89